sensor_id;sensor_type;location;lat;lon;timestamp;pressure;altitude;pressure_sealevel;temperature;humidity
13952;BME280;39535;52.192;9.886;2023-05-19T00:00:54;101852.47;;;10.40;70.27
13952;BME280;39535;52.192;9.886;2023-05-19T00:03:21;101859.44;;;10.35;71.14
13952;BME280;39535;52.192;9.886;2023-05-19T00:05:48;101853.34;;;10.36;71.17
13952;BME280;39535;52.192;9.886;2023-05-19T00:08:17;101861.19;;;10.38;71.00
13952;BME280;39535;52.192;9.886;2023-05-19T00:10:44;101871.59;;;10.36;70.79
13952;BME280;39535;52.192;9.886;2023-05-19T00:13:10;101866.38;;;10.31;71.61
13952;BME280;39535;52.192;9.886;2023-05-19T00:15:37;101867.28;;;10.37;70.58
13952;BME280;39535;52.192;9.886;2023-05-19T00:18:04;101881.19;;;10.37;70.16
13952;BME280;39535;52.192;9.886;2023-05-19T00:20:33;101893.38;;;10.35;70.40
13952;BME280;39535;52.192;9.886;2023-05-19T00:22:59;101886.38;;;10.31;70.99
13952;BME280;39535;52.192;9.886;2023-05-19T00:25:26;101880.25;;;10.27;70.92
13952;BME280;39535;52.192;9.886;2023-05-19T00:27:53;101880.22;;;10.26;71.68
13952;BME280;39535;52.192;9.886;2023-05-19T00:30:19;101859.38;;;10.30;71.54
13952;BME280;39535;52.192;9.886;2023-05-19T00:32:47;101858.47;;;10.28;71.78
13952;BME280;39535;52.192;9.886;2023-05-19T00:35:13;101839.31;;;10.22;72.63
13952;BME280;39535;52.192;9.886;2023-05-19T00:37:39;101826.22;;;10.12;72.67
13952;BME280;39535;52.192;9.886;2023-05-19T00:40:07;101815.81;;;10.17;72.54
13952;BME280;39535;52.192;9.886;2023-05-19T00:42:35;101818.38;;;10.09;72.46
13952;BME280;39535;52.192;9.886;2023-05-19T00:45:01;101810.56;;;10.09;72.43
13952;BME280;39535;52.192;9.886;2023-05-19T00:47:27;101810.56;;;10.12;72.48
13952;BME280;39535;52.192;9.886;2023-05-19T00:49:54;101813.19;;;10.16;72.18
13952;BME280;39535;52.192;9.886;2023-05-19T00:52:20;101814.06;;;10.18;71.74
13952;BME280;39535;52.192;9.886;2023-05-19T00:54:47;101822.72;;;10.06;72.10
13952;BME280;39535;52.192;9.886;2023-05-19T00:57:14;101825.34;;;10.09;72.17
13952;BME280;39535;52.192;9.886;2023-05-19T00:59:41;101820.13;;;10.07;72.22
13952;BME280;39535;52.192;9.886;2023-05-19T01:02:08;101823.63;;;10.11;72.40
13952;BME280;39535;52.192;9.886;2023-05-19T01:04:35;101810.53;;;10.06;72.52
13952;BME280;39535;52.192;9.886;2023-05-19T01:07:04;101807.06;;;10.10;72.23
13952;BME280;39535;52.192;9.886;2023-05-19T01:09:30;101820.97;;;10.06;72.44
13952;BME280;39535;52.192;9.886;2023-05-19T01:11:57;101822.72;;;10.06;72.45
13952;BME280;39535;52.192;9.886;2023-05-19T01:14:23;101812.25;;;10.01;72.59
13952;BME280;39535;52.192;9.886;2023-05-19T01:16:58;101814.03;;;10.05;72.50
13952;BME280;39535;52.192;9.886;2023-05-19T01:19:49;101815.72;;;10.05;72.33
13952;BME280;39535;52.192;9.886;2023-05-19T01:22:27;101814.03;;;10.07;72.22
13952;BME280;39535;52.192;9.886;2023-05-19T01:28:14;101814.81;;;9.97;72.45
13952;BME280;39535;52.192;9.886;2023-05-19T01:30:52;101810.44;;;9.89;72.56
13952;BME280;39535;52.192;9.886;2023-05-19T01:33:20;101814.78;;;9.86;72.79
13952;BME280;39535;52.192;9.886;2023-05-19T01:35:48;101806.94;;;9.86;72.78
13952;BME280;39535;52.192;9.886;2023-05-19T01:38:16;101806.06;;;9.82;72.80
13952;BME280;39535;52.192;9.886;2023-05-19T01:40:44;101807.75;;;9.79;72.85
13952;BME280;39535;52.192;9.886;2023-05-19T01:43:15;101805.19;;;9.85;72.62
13952;BME280;39535;52.192;9.886;2023-05-19T01:45:43;101813.00;;;9.82;72.37
13952;BME280;39535;52.192;9.886;2023-05-19T01:48:11;101813.03;;;9.83;72.48
13952;BME280;39535;52.192;9.886;2023-05-19T01:50:39;101809.47;;;9.75;72.75
13952;BME280;39535;52.192;9.886;2023-05-19T01:53:05;101813.81;;;9.73;72.76
13952;BME280;39535;52.192;9.886;2023-05-19T01:55:31;101805.09;;;9.68;73.14
13952;BME280;39535;52.192;9.886;2023-05-19T01:58:03;101811.97;;;9.57;73.36
13952;BME280;39535;52.192;9.886;2023-05-19T02:00:42;101791.09;;;9.52;74.07
13952;BME280;39535;52.192;9.886;2023-05-19T02:03:21;101782.41;;;9.56;73.71
13952;BME280;39535;52.192;9.886;2023-05-19T02:05:54;101783.22;;;9.49;73.93
13952;BME280;39535;52.192;9.886;2023-05-19T02:08:29;101778.91;;;9.49;73.92
13952;BME280;39535;52.192;9.886;2023-05-19T02:11:02;101784.09;;;9.48;73.78
13952;BME280;39535;52.192;9.886;2023-05-19T02:13:34;101784.97;;;9.48;73.87
13952;BME280;39535;52.192;9.886;2023-05-19T02:16:04;101778.91;;;9.49;73.91
13952;BME280;39535;52.192;9.886;2023-05-19T02:18:32;101775.38;;;9.44;74.29
13952;BME280;39535;52.192;9.886;2023-05-19T02:20:59;101761.47;;;9.45;74.43
13952;BME280;39535;52.192;9.886;2023-05-19T02:23:25;101761.50;;;9.47;74.34
13952;BME280;39535;52.192;9.886;2023-05-19T02:25:52;101767.56;;;9.43;74.60
13952;BME280;39535;52.192;9.886;2023-05-19T02:28:18;101757.06;;;9.35;74.73
13952;BME280;39535;52.192;9.886;2023-05-19T02:30:45;101751.00;;;9.36;74.88
13952;BME280;39535;52.192;9.886;2023-05-19T02:33:11;101751.03;;;9.38;74.79
13952;BME280;39535;52.192;9.886;2023-05-19T02:35:38;101749.22;;;9.33;75.13
13952;BME280;39535;52.192;9.886;2023-05-19T02:38:05;101743.13;;;9.28;75.12
13952;BME280;39535;52.192;9.886;2023-05-19T02:40:31;101737.03;;;9.25;75.50
13952;BME280;39535;52.192;9.886;2023-05-19T02:42:57;101730.97;;;9.26;75.21
13952;BME280;39535;52.192;9.886;2023-05-19T02:45:24;101728.38;;;9.30;75.48
13952;BME280;39535;52.192;9.886;2023-05-19T02:47:52;101726.63;;;9.28;75.22
13952;BME280;39535;52.192;9.886;2023-05-19T02:50:18;101729.25;;;9.31;74.99
13952;BME280;39535;52.192;9.886;2023-05-19T02:52:47;101725.75;;;9.26;75.61
13952;BME280;39535;52.192;9.886;2023-05-19T02:55:14;101720.50;;;9.20;75.63
13952;BME280;39535;52.192;9.886;2023-05-19T02:57:41;101714.34;;;9.10;75.91
13952;BME280;39535;52.192;9.886;2023-05-19T03:00:08;101701.25;;;9.05;76.43
13952;BME280;39535;52.192;9.886;2023-05-19T03:02:35;101696.03;;;9.01;76.98
13952;BME280;39535;52.192;9.886;2023-05-19T03:05:01;101685.63;;;9.02;76.26
13952;BME280;39535;52.192;9.886;2023-05-19T03:07:28;101682.13;;;9.02;76.65
13952;BME280;39535;52.192;9.886;2023-05-19T03:09:55;101684.75;;;9.03;76.89
13952;BME280;39535;52.192;9.886;2023-05-19T03:12:21;101676.09;;;9.07;76.46
13952;BME280;39535;52.192;9.886;2023-05-19T03:14:48;101677.81;;;9.02;76.70
13952;BME280;39535;52.192;9.886;2023-05-19T03:17:15;101672.63;;;9.07;76.70
13952;BME280;39535;52.192;9.886;2023-05-19T03:19:41;101671.72;;;9.03;77.36
13952;BME280;39535;52.192;9.886;2023-05-19T03:22:07;101669.06;;;8.95;76.81
13952;BME280;39535;52.192;9.886;2023-05-19T03:24:33;101664.69;;;8.90;77.79
13952;BME280;39535;52.192;9.886;2023-05-19T03:27:01;101644.81;;;8.98;77.63
13952;BME280;39535;52.192;9.886;2023-05-19T03:29:29;101655.19;;;8.97;77.73
13952;BME280;39535;52.192;9.886;2023-05-19T03:31:55;101648.22;;;8.92;77.79
13952;BME280;39535;52.192;9.886;2023-05-19T03:34:22;101649.91;;;8.87;78.01
13952;BME280;39535;52.192;9.886;2023-05-19T03:36:48;101638.66;;;8.88;78.19
13952;BME280;39535;52.192;9.886;2023-05-19T03:39:14;101640.38;;;8.89;78.26
13952;BME280;39535;52.192;9.886;2023-05-19T03:41:40;101635.22;;;8.94;78.29
13952;BME280;39535;52.192;9.886;2023-05-19T03:44:08;101639.56;;;8.95;78.31
13952;BME280;39535;52.192;9.886;2023-05-19T03:46:35;101639.56;;;8.92;78.00
13952;BME280;39535;52.192;9.886;2023-05-19T03:49:01;101637.84;;;8.97;78.30
13952;BME280;39535;52.192;9.886;2023-05-19T03:51:27;101650.88;;;8.99;77.99
13952;BME280;39535;52.192;9.886;2023-05-19T03:53:54;101646.53;;;8.99;78.08
13952;BME280;39535;52.192;9.886;2023-05-19T03:56:21;101643.94;;;9.04;78.24
13952;BME280;39535;52.192;9.886;2023-05-19T03:58:49;101643.94;;;9.04;78.37
13952;BME280;39535;52.192;9.886;2023-05-19T04:01:16;101643.03;;;8.95;78.67
13952;BME280;39535;52.192;9.886;2023-05-19T04:03:43;101621.28;;;8.87;79.65
13952;BME280;39535;52.192;9.886;2023-05-19T04:06:09;101610.91;;;8.92;79.63
13952;BME280;39535;52.192;9.886;2023-05-19T04:08:37;101612.69;;;9.01;79.18
13952;BME280;39535;52.192;9.886;2023-05-19T04:11:03;101609.22;;;9.02;79.69
13952;BME280;39535;52.192;9.886;2023-05-19T04:13:31;101605.78;;;9.09;79.53
13952;BME280;39535;52.192;9.886;2023-05-19T04:15:58;101608.41;;;9.10;80.09
13952;BME280;39535;52.192;9.886;2023-05-19T04:18:26;101602.31;;;9.07;79.89
13952;BME280;39535;52.192;9.886;2023-05-19T04:20:52;101600.56;;;9.04;80.16
13952;BME280;39535;52.192;9.886;2023-05-19T04:23:19;101597.13;;;9.10;80.55
13952;BME280;39535;52.192;9.886;2023-05-19T04:25:45;101598.84;;;9.09;80.13
13952;BME280;39535;52.192;9.886;2023-05-19T04:28:12;101601.44;;;9.05;80.59
13952;BME280;39535;52.192;9.886;2023-05-19T04:30:39;101602.34;;;9.18;79.92
13952;BME280;39535;52.192;9.886;2023-05-19T04:33:06;101601.53;;;9.20;79.53
13952;BME280;39535;52.192;9.886;2023-05-19T04:35:34;101615.38;;;9.14;80.55
13952;BME280;39535;52.192;9.886;2023-05-19T04:38:02;101609.38;;;9.26;79.77
13952;BME280;39535;52.192;9.886;2023-05-19T04:40:28;101618.94;;;9.29;79.84
13952;BME280;39535;52.192;9.886;2023-05-19T04:42:56;101618.06;;;9.27;80.10
13952;BME280;39535;52.192;9.886;2023-05-19T04:45:23;101625.91;;;9.34;79.79
13952;BME280;39535;52.192;9.886;2023-05-19T04:47:50;101625.06;;;9.40;79.49
13952;BME280;39535;52.192;9.886;2023-05-19T04:50:16;101633.78;;;9.42;79.43
13952;BME280;39535;52.192;9.886;2023-05-19T04:52:44;101643.31;;;9.43;79.35
13952;BME280;39535;52.192;9.886;2023-05-19T04:55:11;101626.78;;;9.35;80.43
13952;BME280;39535;52.192;9.886;2023-05-19T04:57:37;101619.84;;;9.39;80.38
13952;BME280;39535;52.192;9.886;2023-05-19T05:00:05;101623.38;;;9.44;80.12
13952;BME280;39535;52.192;9.886;2023-05-19T05:02:33;101631.22;;;9.51;79.88
13952;BME280;39535;52.192;9.886;2023-05-19T05:05:00;101636.47;;;9.58;79.69
13952;BME280;39535;52.192;9.886;2023-05-19T05:07:26;101636.47;;;9.64;80.17
13952;BME280;39535;52.192;9.886;2023-05-19T05:09:54;101633.00;;;9.65;79.76
13952;BME280;39535;52.192;9.886;2023-05-19T05:12:20;101651.28;;;9.72;79.27
13952;BME280;39535;52.192;9.886;2023-05-19T05:14:47;101654.78;;;9.76;79.11
13952;BME280;39535;52.192;9.886;2023-05-19T05:17:14;101661.72;;;9.79;79.05
13952;BME280;39535;52.192;9.886;2023-05-19T05:19:41;101675.66;;;9.82;78.26
13952;BME280;39535;52.192;9.886;2023-05-19T05:22:08;101688.72;;;9.87;77.88
13952;BME280;39535;52.192;9.886;2023-05-19T05:24:35;101705.28;;;9.97;76.76
13952;BME280;39535;52.192;9.886;2023-05-19T05:27:03;101707.91;;;10.01;77.09
13952;BME280;39535;52.192;9.886;2023-05-19T05:29:30;101721.84;;;10.03;76.51
13952;BME280;39535;52.192;9.886;2023-05-19T05:31:56;101746.19;;;10.05;75.88
13952;BME280;39535;52.192;9.886;2023-05-19T05:34:22;101755.75;;;10.08;76.07
13952;BME280;39535;52.192;9.886;2023-05-19T05:36:49;101755.78;;;10.11;76.31
13952;BME280;39535;52.192;9.886;2023-05-19T05:39:16;101769.69;;;10.11;76.05
13952;BME280;39535;52.192;9.886;2023-05-19T05:41:42;101752.31;;;10.15;76.68
13952;BME280;39535;52.192;9.886;2023-05-19T05:44:10;101746.22;;;10.21;76.65
13952;BME280;39535;52.192;9.886;2023-05-19T05:46:36;101742.78;;;10.26;76.66
13952;BME280;39535;52.192;9.886;2023-05-19T05:49:03;101741.09;;;10.30;76.64
13952;BME280;39535;52.192;9.886;2023-05-19T05:51:30;101738.47;;;10.30;76.66
13952;BME280;39535;52.192;9.886;2023-05-19T05:53:59;101753.28;;;10.34;76.31
13952;BME280;39535;52.192;9.886;2023-05-19T05:56:27;101741.09;;;10.38;77.38
13952;BME280;39535;52.192;9.886;2023-05-19T05:58:53;101728.91;;;10.38;77.36
13952;BME280;39535;52.192;9.886;2023-05-19T06:01:21;101749.81;;;10.41;76.22
13952;BME280;39535;52.192;9.886;2023-05-19T06:03:48;101761.16;;;10.45;76.48
13952;BME280;39535;52.192;9.886;2023-05-19T06:06:14;101751.59;;;10.50;76.77
13952;BME280;39535;52.192;9.886;2023-05-19T06:08:40;101750.75;;;10.59;77.02
13952;BME280;39535;52.192;9.886;2023-05-19T06:11:07;101764.66;;;10.62;75.82
13952;BME280;39535;52.192;9.886;2023-05-19T06:13:34;101768.16;;;10.67;76.29
13952;BME280;39535;52.192;9.886;2023-05-19T06:16:00;101769.91;;;10.70;76.34
13952;BME280;39535;52.192;9.886;2023-05-19T06:18:28;101768.16;;;10.73;76.53
13952;BME280;39535;52.192;9.886;2023-05-19T06:20:54;101766.44;;;10.79;76.49
13952;BME280;39535;52.192;9.886;2023-05-19T06:23:21;101754.25;;;10.81;76.79
13952;BME280;39535;52.192;9.886;2023-05-19T06:25:48;101757.72;;;10.86;75.95
13952;BME280;39535;52.192;9.886;2023-05-19T06:28:14;101772.53;;;10.90;76.06
13952;BME280;39535;52.192;9.886;2023-05-19T06:30:41;101765.59;;;10.93;76.24
13952;BME280;39535;52.192;9.886;2023-05-19T06:33:07;101772.56;;;10.96;76.57
13952;BME280;39535;52.192;9.886;2023-05-19T06:35:35;101753.41;;;11.03;76.65
13952;BME280;39535;52.192;9.886;2023-05-19T06:38:01;101763.00;;;11.10;76.49
13952;BME280;39535;52.192;9.886;2023-05-19T06:40:27;101748.16;;;11.17;76.55
13952;BME280;39535;52.192;9.886;2023-05-19T06:42:53;101745.56;;;11.19;76.87
13952;BME280;39535;52.192;9.886;2023-05-19T06:45:20;101745.56;;;11.28;76.50
13952;BME280;39535;52.192;9.886;2023-05-19T06:47:46;101755.13;;;11.35;76.30
13952;BME280;39535;52.192;9.886;2023-05-19T06:50:13;101771.69;;;11.39;75.44
13952;BME280;39535;52.192;9.886;2023-05-19T06:52:41;101781.28;;;11.46;74.73
13952;BME280;39535;52.192;9.886;2023-05-19T06:55:08;101805.66;;;11.51;74.64
13952;BME280;39535;52.192;9.886;2023-05-19T06:57:34;101813.53;;;11.56;74.30
13952;BME280;39535;52.192;9.886;2023-05-19T07:00:01;101791.72;;;11.58;76.23
13952;BME280;39535;52.192;9.886;2023-05-19T07:02:28;101787.34;;;11.66;75.38
13952;BME280;39535;52.192;9.886;2023-05-19T07:04:54;101789.94;;;11.71;74.77
13952;BME280;39535;52.192;9.886;2023-05-19T07:07:21;101803.00;;;11.79;75.04
13952;BME280;39535;52.192;9.886;2023-05-19T07:09:49;101800.41;;;11.83;75.39
13952;BME280;39535;52.192;9.886;2023-05-19T07:12:15;101801.25;;;11.87;75.08
13952;BME280;39535;52.192;9.886;2023-05-19T07:14:42;101814.38;;;11.91;74.79
13952;BME280;39535;52.192;9.886;2023-05-19T07:17:08;101805.63;;;11.94;74.46
13952;BME280;39535;52.192;9.886;2023-05-19T07:19:34;101812.56;;;12.03;74.51
13952;BME280;39535;52.192;9.886;2023-05-19T07:22:01;101813.44;;;12.08;74.21
13952;BME280;39535;52.192;9.886;2023-05-19T07:24:27;101831.75;;;12.17;73.53
13952;BME280;39535;52.192;9.886;2023-05-19T07:26:56;101845.72;;;12.19;72.31
13952;BME280;39535;52.192;9.886;2023-05-19T07:29:22;101858.78;;;12.25;72.97
13952;BME280;39535;52.192;9.886;2023-05-19T07:31:49;101872.72;;;12.27;72.16
13952;BME280;39535;52.192;9.886;2023-05-19T07:34:18;101880.56;;;12.30;72.66
13952;BME280;39535;52.192;9.886;2023-05-19T07:36:44;101872.69;;;12.37;72.66
13952;BME280;39535;52.192;9.886;2023-05-19T07:39:11;101877.91;;;12.44;71.82
13952;BME280;39535;52.192;9.886;2023-05-19T07:41:37;101893.59;;;12.54;71.16
13952;BME280;39535;52.192;9.886;2023-05-19T07:44:05;101920.63;;;12.60;69.81
13952;BME280;39535;52.192;9.886;2023-05-19T07:46:31;101933.72;;;12.63;70.89
13952;BME280;39535;52.192;9.886;2023-05-19T07:48:58;101938.06;;;12.67;70.10
13952;BME280;39535;52.192;9.886;2023-05-19T07:51:24;101939.81;;;12.75;70.82
13952;BME280;39535;52.192;9.886;2023-05-19T07:53:53;101943.25;;;12.78;70.59
13952;BME280;39535;52.192;9.886;2023-05-19T07:56:20;101944.13;;;12.82;70.45
13952;BME280;39535;52.192;9.886;2023-05-19T07:58:46;101939.75;;;12.84;70.91
13952;BME280;39535;52.192;9.886;2023-05-19T08:01:14;101932.72;;;12.94;70.43
13952;BME280;39535;52.192;9.886;2023-05-19T08:03:40;101938.81;;;13.00;70.77
13952;BME280;39535;52.192;9.886;2023-05-19T08:06:07;101942.28;;;13.07;70.30
13952;BME280;39535;52.192;9.886;2023-05-19T08:08:33;101952.72;;;13.10;69.50
13952;BME280;39535;52.192;9.886;2023-05-19T08:11:01;101957.06;;;13.19;68.89
13952;BME280;39535;52.192;9.886;2023-05-19T08:13:27;101980.66;;;13.20;67.94
13952;BME280;39535;52.192;9.886;2023-05-19T08:15:53;101999.00;;;13.22;68.40
13952;BME280;39535;52.192;9.886;2023-05-19T08:18:25;102013.84;;;13.27;67.88
13952;BME280;39535;52.192;9.886;2023-05-19T08:20:51;102021.72;;;13.32;67.04
13952;BME280;39535;52.192;9.886;2023-05-19T08:23:17;102037.44;;;13.34;67.46
13952;BME280;39535;52.192;9.886;2023-05-19T08:25:44;102031.28;;;13.42;67.19
13952;BME280;39535;52.192;9.886;2023-05-19T08:28:10;102042.63;;;13.47;67.09
13952;BME280;39535;52.192;9.886;2023-05-19T08:30:36;102041.72;;;13.53;66.56
13952;BME280;39535;52.192;9.886;2023-05-19T08:33:03;102048.69;;;13.56;66.58
13952;BME280;39535;52.192;9.886;2023-05-19T08:35:30;102069.69;;;13.60;66.06
13952;BME280;39535;52.192;9.886;2023-05-19T08:37:57;102051.28;;;13.68;66.64
13952;BME280;39535;52.192;9.886;2023-05-19T08:40:24;102042.50;;;13.70;68.61
13952;BME280;39535;52.192;9.886;2023-05-19T08:42:51;102025.84;;;13.73;66.82
13952;BME280;39535;52.192;9.886;2023-05-19T08:45:18;102039.78;;;13.81;65.59
13952;BME280;39535;52.192;9.886;2023-05-19T08:51:59;102077.31;;;14.00;65.32
13952;BME280;39535;52.192;9.886;2023-05-19T08:54:39;102057.16;;;14.04;67.46
13952;BME280;39535;52.192;9.886;2023-05-19T08:57:07;102049.19;;;14.16;64.53
13952;BME280;39535;52.192;9.886;2023-05-19T08:59:34;102074.53;;;14.22;63.63
13952;BME280;39535;52.192;9.886;2023-05-19T09:02:02;102086.69;;;14.32;64.28
13952;BME280;39535;52.192;9.886;2023-05-19T09:04:29;102097.16;;;14.38;62.90
13952;BME280;39535;52.192;9.886;2023-05-19T09:06:57;102119.88;;;14.45;62.86
13952;BME280;39535;52.192;9.886;2023-05-19T09:09:26;102121.56;;;14.53;63.29
13952;BME280;39535;52.192;9.886;2023-05-19T09:11:55;102142.53;;;14.60;61.76
13952;BME280;39535;52.192;9.886;2023-05-19T09:14:22;102154.78;;;14.64;61.87
13952;BME280;39535;52.192;9.886;2023-05-19T09:16:49;102171.41;;;14.68;61.88
13952;BME280;39535;52.192;9.886;2023-05-19T09:19:17;102177.50;;;14.73;61.50
13952;BME280;39535;52.192;9.886;2023-05-19T09:21:44;102159.03;;;14.81;60.97
13952;BME280;39535;52.192;9.886;2023-05-19T09:24:12;102192.25;;;14.89;60.50
13952;BME280;39535;52.192;9.886;2023-05-19T09:26:40;102198.31;;;14.96;59.77
13952;BME280;39535;52.192;9.886;2023-05-19T09:29:10;102219.28;;;15.04;59.04
13952;BME280;39535;52.192;9.886;2023-05-19T09:31:36;102219.22;;;15.10;59.15
13952;BME280;39535;52.192;9.886;2023-05-19T09:34:03;102240.22;;;15.18;58.11
13952;BME280;39535;52.192;9.886;2023-05-19T09:36:30;102270.00;;;15.24;58.20
13952;BME280;39535;52.192;9.886;2023-05-19T09:38:57;102267.25;;;15.34;58.49
13952;BME280;39535;52.192;9.886;2023-05-19T09:41:24;102261.06;;;15.39;58.86
13952;BME280;39535;52.192;9.886;2023-05-19T09:43:53;102268.88;;;15.48;57.01
13952;BME280;39535;52.192;9.886;2023-05-19T09:46:23;102301.25;;;15.57;56.35
13952;BME280;39535;52.192;9.886;2023-05-19T09:48:55;102313.50;;;15.59;56.39
13952;BME280;39535;52.192;9.886;2023-05-19T09:51:22;102321.34;;;15.65;56.55
13952;BME280;39535;52.192;9.886;2023-05-19T09:53:49;102322.16;;;15.72;56.72
13952;BME280;39535;52.192;9.886;2023-05-19T09:56:15;102326.53;;;15.78;55.35
13952;BME280;39535;52.192;9.886;2023-05-19T09:58:44;102342.22;;;15.87;56.45
13952;BME280;39535;52.192;9.886;2023-05-19T10:01:10;102329.84;;;15.95;56.52
13952;BME280;39535;52.192;9.886;2023-05-19T10:03:37;102330.69;;;16.00;55.28
13952;BME280;39535;52.192;9.886;2023-05-19T10:06:04;102335.81;;;16.13;55.09
13952;BME280;39535;52.192;9.886;2023-05-19T10:08:33;102340.13;;;16.20;55.60
13952;BME280;39535;52.192;9.886;2023-05-19T10:11:00;102336.53;;;16.25;55.24
13952;BME280;39535;52.192;9.886;2023-05-19T10:13:28;102325.84;;;16.36;54.56
13952;BME280;39535;52.192;9.886;2023-05-19T10:15:56;102320.44;;;16.47;54.06
13952;BME280;39535;52.192;9.886;2023-05-19T10:18:24;102352.81;;;16.57;53.71
13952;BME280;39535;52.192;9.886;2023-05-19T10:20:51;102379.06;;;16.67;55.01
13952;BME280;39535;52.192;9.886;2023-05-19T10:23:17;102326.13;;;16.80;52.91
13952;BME280;39535;52.192;9.886;2023-05-19T10:25:44;102368.28;;;16.87;51.86
13952;BME280;39535;52.192;9.886;2023-05-19T10:28:13;102412.19;;;16.92;51.02
13952;BME280;39535;52.192;9.886;2023-05-19T10:30:44;102438.47;;;16.98;51.22
13952;BME280;39535;52.192;9.886;2023-05-19T10:33:14;102443.66;;;17.05;49.42
13952;BME280;39535;52.192;9.886;2023-05-19T10:36:00;102486.63;;;17.15;50.73
13952;BME280;39535;52.192;9.886;2023-05-19T10:38:39;102479.38;;;17.28;51.18
13952;BME280;39535;52.192;9.886;2023-05-19T10:41:10;102478.41;;;17.37;48.92
13952;BME280;39535;52.192;9.886;2023-05-19T10:43:48;102500.47;;;17.31;48.97
13952;BME280;39535;52.192;9.886;2023-05-19T10:46:22;102528.66;;;17.27;48.88
13952;BME280;39535;52.192;9.886;2023-05-19T10:48:50;102538.31;;;17.30;50.34
13952;BME280;39535;52.192;9.886;2023-05-19T10:51:17;102513.47;;;17.46;48.96
13952;BME280;39535;52.192;9.886;2023-05-19T10:53:44;102522.06;;;17.59;48.79
13952;BME280;39535;52.192;9.886;2023-05-19T10:56:11;102517.41;;;17.77;48.21
13952;BME280;39535;52.192;9.886;2023-05-19T10:58:49;102540.09;;;17.92;49.47
13952;BME280;39535;52.192;9.886;2023-05-19T11:01:18;102525.03;;;17.97;47.75
13952;BME280;39535;52.192;9.886;2023-05-19T11:03:46;102543.41;;;18.06;47.71
13952;BME280;39535;52.192;9.886;2023-05-19T11:06:18;102550.41;;;18.09;47.34
13952;BME280;39535;52.192;9.886;2023-05-19T11:08:45;102542.47;;;18.09;47.77
13952;BME280;39535;52.192;9.886;2023-05-19T11:11:13;102554.13;;;17.95;46.88
13952;BME280;39535;52.192;9.886;2023-05-19T11:13:42;102584.19;;;17.88;45.68
13952;BME280;39535;52.192;9.886;2023-05-19T11:16:09;102610.66;;;17.85;48.00
13952;BME280;39535;52.192;9.886;2023-05-19T11:18:35;102558.50;;;17.98;48.51
13952;BME280;39535;52.192;9.886;2023-05-19T11:21:02;102529.13;;;18.16;46.26
13952;BME280;39535;52.192;9.886;2023-05-19T11:23:32;102558.78;;;18.34;46.43
13952;BME280;39535;52.192;9.886;2023-05-19T11:26:01;102574.44;;;18.46;45.02
13952;BME280;39535;52.192;9.886;2023-05-19T11:28:28;102589.72;;;18.77;45.36
13952;BME280;39535;52.192;9.886;2023-05-19T11:30:55;102599.06;;;19.41;44.66
13952;BME280;39535;52.192;9.886;2023-05-19T11:33:23;102621.69;;;20.36;41.76
13952;BME280;39535;52.192;9.886;2023-05-19T11:35:52;102671.81;;;21.78;42.13
13952;BME280;39535;52.192;9.886;2023-05-19T11:38:19;102699.63;;;23.31;39.45
13952;BME280;39535;52.192;9.886;2023-05-19T11:40:51;102796.09;;;24.82;35.18
13952;BME280;39535;52.192;9.886;2023-05-19T11:43:18;102911.03;;;26.29;32.17
13952;BME280;39535;52.192;9.886;2023-05-19T11:45:47;103006.03;;;27.54;30.74
13952;BME280;39535;52.192;9.886;2023-05-19T11:48:13;103019.47;;;28.75;29.42
13952;BME280;39535;52.192;9.886;2023-05-19T11:50:41;103095.34;;;29.45;27.13
13952;BME280;39535;52.192;9.886;2023-05-19T11:53:11;103139.41;;;29.76;27.01
13952;BME280;39535;52.192;9.886;2023-05-19T11:55:41;103144.97;;;30.35;26.11
13952;BME280;39535;52.192;9.886;2023-05-19T11:58:09;103155.69;;;30.80;25.62
13952;BME280;39535;52.192;9.886;2023-05-19T12:00:38;103140.97;;;30.85;25.86
13952;BME280;39535;52.192;9.886;2023-05-19T12:03:05;103159.13;;;30.23;25.97
13952;BME280;39535;52.192;9.886;2023-05-19T12:05:32;103141.44;;;30.03;25.82
13952;BME280;39535;52.192;9.886;2023-05-19T12:07:59;103125.56;;;29.35;26.01
13952;BME280;39535;52.192;9.886;2023-05-19T12:10:27;103106.09;;;28.64;28.30
13952;BME280;39535;52.192;9.886;2023-05-19T12:12:54;103060.72;;;28.41;27.04
13952;BME280;39535;52.192;9.886;2023-05-19T12:15:23;103033.88;;;28.06;27.46
13952;BME280;39535;52.192;9.886;2023-05-19T12:17:50;103024.19;;;27.49;28.37
13952;BME280;39535;52.192;9.886;2023-05-19T12:20:17;103007.69;;;26.83;28.08
13952;BME280;39535;52.192;9.886;2023-05-19T12:22:44;103000.53;;;25.81;29.52
13952;BME280;39535;52.192;9.886;2023-05-19T12:25:11;102964.41;;;24.82;29.90
13952;BME280;39535;52.192;9.886;2023-05-19T12:27:37;102937.63;;;24.36;31.57
13952;BME280;39535;52.192;9.886;2023-05-19T12:30:05;102884.97;;;23.93;31.62
13952;BME280;39535;52.192;9.886;2023-05-19T12:32:33;102860.84;;;23.44;32.38
13952;BME280;39535;52.192;9.886;2023-05-19T12:35:01;102829.97;;;23.12;32.88
13952;BME280;39535;52.192;9.886;2023-05-19T12:37:28;102815.72;;;22.58;34.10
13952;BME280;39535;52.192;9.886;2023-05-19T12:39:55;102777.34;;;22.06;34.69
13952;BME280;39535;52.192;9.886;2023-05-19T12:42:22;102737.81;;;21.64;34.84
13952;BME280;39535;52.192;9.886;2023-05-19T12:44:50;102701.97;;;21.47;36.02
13952;BME280;39535;52.192;9.886;2023-05-19T12:47:17;102668.84;;;21.26;35.60
13952;BME280;39535;52.192;9.886;2023-05-19T12:49:55;102658.38;;;20.89;35.80
13952;BME280;39535;52.192;9.886;2023-05-19T12:52:22;102657.19;;;20.66;36.59
13952;BME280;39535;52.192;9.886;2023-05-19T12:54:48;102623.09;;;20.49;37.74
13952;BME280;39535;52.192;9.886;2023-05-19T12:57:16;102583.63;;;20.37;38.13
13952;BME280;39535;52.192;9.886;2023-05-19T12:59:42;102559.63;;;20.41;37.71
13952;BME280;39535;52.192;9.886;2023-05-19T13:02:09;102543.28;;;20.57;37.55